Time;durP1;ratioP1;P1;durP2;ratioP2;P2;SDS_P1;SDS_P2;PMS_P1;PMS_P2;Temp;Humidity;BMP_temperature;BMP_pressure;BME280_temperature;BME280_humidity;BME280_pressure;Samples;Min_cycle;Max_cycle;Signal;HPM_P1;HPM_P2
2021/12/30 00:01:47;;;;;;;;;;;;;;;7.64;88.98;99060.16;5066603;28;19928;-87
2021/12/30 00:04:12;;;;;;;;;;;;;;;7.68;88.51;99054.00;5068626;28;19921;-86
2021/12/30 00:06:41;;;;;;;;;;;;;;;7.81;88.06;99062.56;5069588;28;19917;-87
2021/12/30 00:09:11;;;;;;;;;;;;;;;7.82;88.10;99056.41;5051309;28;19921;-86
2021/12/30 00:11:36;;;;;;;;;;;;;;;7.81;88.38;99055.53;5049897;28;20033;-86
2021/12/30 00:14:02;;;;;;;;;;;;;;;7.96;87.52;99058.84;5049035;28;20054;-87
2021/12/30 00:16:27;;;;;;;;;;;;;;;7.80;88.59;99058.19;5048882;28;20323;-87
2021/12/30 00:18:53;;;;;;;;;;;;;;;7.64;89.19;99054.91;5052084;28;19917;-87
2021/12/30 00:21:20;;;;;;;;;;;;;;;7.59;90.39;99056.72;5048855;28;19917;-87
2021/12/30 00:23:46;;;;;;;;;;;;;;;7.77;90.20;99060.84;5049463;28;19917;-86
2021/12/30 00:26:11;;;;;;;;;;;;;;;7.75;90.67;99057.38;5050151;28;19928;-86
2021/12/30 00:28:37;;;;;;;;;;;;;;;8.02;89.10;99061.38;5062003;28;20308;-87
2021/12/30 00:31:02;;;;;;;;;;;;;;;8.02;89.02;99054.38;5068690;28;20509;-87
2021/12/30 00:33:28;;;;;;;;;;;;;;;7.99;88.96;99059.66;5066834;28;19920;-86
2021/12/30 00:35:53;;;;;;;;;;;;;;;8.07;88.61;99052.53;5068625;28;20007;-87
2021/12/30 00:38:19;;;;;;;;;;;;;;;7.95;89.18;99047.47;5065212;28;19966;-88
2021/12/30 00:40:44;;;;;;;;;;;;;;;7.88;90.11;99056.34;5068365;28;20310;-87
2021/12/30 00:43:10;;;;;;;;;;;;;;;7.76;90.67;99051.25;5068482;28;19995;-87
2021/12/30 00:45:36;;;;;;;;;;;;;;;7.78;90.97;99050.31;5061023;28;19974;-87
2021/12/30 00:48:01;;;;;;;;;;;;;;;7.93;91.04;99053.66;5049410;28;20372;-87
2021/12/30 00:50:27;;;;;;;;;;;;;;;7.85;90.94;99053.75;5059566;28;20054;-87
2021/12/30 00:52:53;;;;;;;;;;;;;;;7.88;91.76;99058.97;5048666;28;19917;-88
2021/12/30 00:55:19;;;;;;;;;;;;;;;7.96;90.91;99053.59;5048582;28;20295;-88
2021/12/30 00:57:44;;;;;;;;;;;;;;;7.99;90.31;99059.66;5047390;28;19925;-88
2021/12/30 01:00:11;;;;;;;;;;;;;;;7.99;90.67;99062.28;5064650;28;19928;-87
2021/12/30 01:02:37;;;;;;;;;;;;;;;8.00;90.84;99069.28;5027639;28;19921;-87
2021/12/30 01:05:03;;;;;;;;;;;;;;;8.09;90.29;99067.41;5039382;28;19924;-88
2021/12/30 01:07:28;;;;;;;;;;;;;;;8.11;90.44;99066.50;5083045;28;20337;-87
2021/12/30 01:09:53;;;;;;;;;;;;;;;8.22;88.84;99067.19;5050543;28;20045;-88
2021/12/30 01:12:19;;;;;;;;;;;;;;;8.45;88.74;99063.38;5047451;28;19987;-88
2021/12/30 01:14:47;;;;;;;;;;;;;;;8.20;89.40;99063.75;5047712;28;19946;-88
2021/12/30 01:17:26;;;;;;;;;;;;;;;8.34;88.86;99068.78;5047851;28;19925;-87
2021/12/30 01:19:52;;;;;;;;;;;;;;;8.36;88.61;99066.13;5064440;28;19924;-87
2021/12/30 01:22:35;;;;;;;;;;;;;;;8.39;88.55;99061.69;5067709;28;19928;-87
2021/12/30 01:25:01;;;;;;;;;;;;;;;8.45;87.85;99062.50;5051677;28;19925;-87
2021/12/30 01:27:26;;;;;;;;;;;;;;;8.54;87.25;99064.97;5047282;28;19917;-86
2021/12/30 01:29:51;;;;;;;;;;;;;;;8.54;87.59;99060.59;5064456;28;20480;-87
2021/12/30 01:32:17;;;;;;;;;;;;;;;8.47;87.65;99060.72;5067109;28;20758;-87
2021/12/30 01:34:43;;;;;;;;;;;;;;;8.46;87.90;99065.09;5067475;28;19921;-87
2021/12/30 01:37:09;;;;;;;;;;;;;;;8.42;87.87;99066.88;5063098;28;19924;-87
2021/12/30 01:39:37;;;;;;;;;;;;;;;8.33;87.62;99068.81;5050279;28;20501;-88
2021/12/30 01:42:04;;;;;;;;;;;;;;;8.34;88.23;99067.88;5048122;28;19927;-87
2021/12/30 01:44:29;;;;;;;;;;;;;;;8.56;86.83;99076.34;5067567;28;19921;-88
2021/12/30 01:46:55;;;;;;;;;;;;;;;8.57;86.82;99072.81;5067274;28;20401;-87
2021/12/30 01:49:21;;;;;;;;;;;;;;;8.19;87.57;99069.88;5065605;28;19924;-88
2021/12/30 01:51:47;;;;;;;;;;;;;;;8.25;88.87;99068.94;5055754;28;19951;-88
2021/12/30 01:54:13;;;;;;;;;;;;;;;8.18;88.13;99072.53;5046975;28;19917;-89
2021/12/30 01:56:38;;;;;;;;;;;;;;;8.19;87.81;99071.66;5047120;28;19921;-88
2021/12/30 01:59:03;;;;;;;;;;;;;;;8.22;87.58;99069.81;5054868;28;19974;-87
2021/12/30 02:01:29;;;;;;;;;;;;;;;8.19;87.96;99072.50;5065294;28;19924;-87
2021/12/30 02:03:55;;;;;;;;;;;;;;;8.23;87.03;99074.19;5067226;28;19920;-87
2021/12/30 02:06:20;;;;;;;;;;;;;;;8.27;86.63;99072.38;5048577;28;19959;-87
2021/12/30 02:08:46;;;;;;;;;;;;;;;8.05;86.75;99062.19;5052183;28;19920;-87
2021/12/30 02:11:11;;;;;;;;;;;;;;;8.16;86.83;99088.31;5066664;28;19920;-88
2021/12/30 02:13:36;;;;;;;;;;;;;;;8.17;86.46;99091.78;5048544;28;19964;-86
2021/12/30 02:16:02;;;;;;;;;;;;;;;8.07;86.43;99093.69;5046972;28;19920;-86
2021/12/30 02:18:31;;;;;;;;;;;;;;;8.23;86.32;99095.22;5058661;28;19928;-87
2021/12/30 02:21:01;;;;;;;;;;;;;;;8.06;85.35;99100.72;5051171;28;19960;-87
2021/12/30 02:23:30;;;;;;;;;;;;;;;8.21;84.77;99098.75;5046857;28;19921;-86
2021/12/30 02:25:57;;;;;;;;;;;;;;;8.28;84.57;99104.78;5045765;28;19974;-87
2021/12/30 02:28:25;;;;;;;;;;;;;;;8.24;84.65;99102.19;5047897;28;19924;-87
2021/12/30 02:30:55;;;;;;;;;;;;;;;8.30;83.55;99106.50;5067179;28;19920;-88
2021/12/30 02:33:21;;;;;;;;;;;;;;;8.27;83.26;99111.81;5054167;28;19924;-87
2021/12/30 02:35:46;;;;;;;;;;;;;;;8.20;83.62;99116.28;5047017;28;20429;-89
2021/12/30 02:38:12;;;;;;;;;;;;;;;8.14;84.06;99118.13;5047780;28;19964;-87
2021/12/30 02:40:41;;;;;;;;;;;;;;;8.21;84.13;99114.53;5066702;28;19916;-88
2021/12/30 02:43:07;;;;;;;;;;;;;;;8.10;84.35;99122.56;5059998;28;19924;-89
2021/12/30 02:45:32;;;;;;;;;;;;;;;8.15;83.98;99127.75;5037750;28;19917;-87
2021/12/30 02:47:58;;;;;;;;;;;;;;;8.16;84.14;99130.34;5067742;28;19924;-88
2021/12/30 02:50:23;;;;;;;;;;;;;;;8.19;84.19;99132.94;5050762;28;19920;-87
2021/12/30 02:52:48;;;;;;;;;;;;;;;8.18;83.57;99135.59;5065538;28;19956;-87
2021/12/30 02:55:14;;;;;;;;;;;;;;;8.32;82.69;99138.88;5066438;28;19978;-88
2021/12/30 02:57:39;;;;;;;;;;;;;;;8.07;83.42;99139.22;5065835;28;19921;-88
2021/12/30 03:00:06;;;;;;;;;;;;;;;7.91;83.24;99139.44;5063731;28;20317;-88
2021/12/30 03:02:34;;;;;;;;;;;;;;;7.94;82.51;99142.91;5047274;28;19921;-88
2021/12/30 03:04:59;;;;;;;;;;;;;;;8.06;82.80;99142.75;5047143;28;19924;-87
2021/12/30 03:07:25;;;;;;;;;;;;;;;7.94;82.93;99152.53;5045645;28;19925;-88
2021/12/30 03:09:50;;;;;;;;;;;;;;;7.85;83.08;99153.53;5046760;28;19993;-88
2021/12/30 03:12:16;;;;;;;;;;;;;;;8.10;83.08;99154.06;5045541;28;20768;-88
2021/12/30 03:14:42;;;;;;;;;;;;;;;8.02;83.07;99154.19;5046713;28;19921;-89
2021/12/30 03:17:07;;;;;;;;;;;;;;;7.89;82.60;99161.34;5060659;28;19934;-88
2021/12/30 03:19:33;;;;;;;;;;;;;;;7.94;82.93;99161.31;5064387;28;20385;-88
2021/12/30 03:21:58;;;;;;;;;;;;;;;7.94;83.12;99155.16;5049893;28;20458;-87
2021/12/30 03:24:24;;;;;;;;;;;;;;;7.94;82.00;99166.56;5048080;28;19978;-89
2021/12/30 03:26:49;;;;;;;;;;;;;;;7.74;82.63;99166.81;5049606;28;20020;-88
2021/12/30 03:29:14;;;;;;;;;;;;;;;7.79;83.18;99174.63;5061293;28;20015;-87
2021/12/30 03:31:40;;;;;;;;;;;;;;;7.82;83.22;99167.56;5069836;28;19954;-87
2021/12/30 03:34:05;;;;;;;;;;;;;;;7.63;82.99;99180.06;5069722;28;20011;-87
2021/12/30 03:36:32;;;;;;;;;;;;;;;7.61;83.84;99178.31;5070185;28;19920;-88
2021/12/30 03:38:57;;;;;;;;;;;;;;;7.66;83.66;99179.13;5059063;28;19967;-88
2021/12/30 03:41:25;;;;;;;;;;;;;;;7.77;83.28;99179.91;5050175;28;20382;-88
2021/12/30 03:43:51;;;;;;;;;;;;;;;7.80;83.85;99186.84;5050253;28;19924;-88
2021/12/30 03:46:16;;;;;;;;;;;;;;;7.62;83.18;99191.44;5049264;28;19924;-87
2021/12/30 03:48:43;;;;;;;;;;;;;;;7.65;84.02;99194.03;5052457;28;19931;-87
2021/12/30 03:51:12;;;;;;;;;;;;;;;7.86;83.35;99197.28;5050448;28;20335;-86
2021/12/30 03:53:40;;;;;;;;;;;;;;;7.68;83.94;99204.50;5049873;28;19921;-86
2021/12/30 03:56:07;;;;;;;;;;;;;;;7.71;83.89;99207.06;5050416;28;20030;-87
2021/12/30 03:58:32;;;;;;;;;;;;;;;7.67;84.57;99201.88;5049788;28;19917;-87
2021/12/30 04:00:58;;;;;;;;;;;;;;;7.70;83.98;99217.59;5049160;28;20317;-87
2021/12/30 04:03:23;;;;;;;;;;;;;;;7.77;83.30;99214.03;5054367;28;19932;-87
2021/12/30 04:05:49;;;;;;;;;;;;;;;7.52;85.06;99213.41;5069111;28;19994;-87
2021/12/30 04:08:14;;;;;;;;;;;;;;;7.72;84.03;99215.81;5045481;28;20314;-87
2021/12/30 04:10:39;;;;;;;;;;;;;;;7.75;83.16;99222.78;5040285;28;20393;-88
2021/12/30 04:13:04;;;;;;;;;;;;;;;7.52;84.73;99221.28;5050098;28;20436;-87
2021/12/30 04:15:30;;;;;;;;;;;;;;;7.61;84.20;99233.44;5062540;28;19925;-86
2021/12/30 04:17:55;;;;;;;;;;;;;;;7.53;84.94;99241.41;5065857;28;19924;-88
2021/12/30 04:20:20;;;;;;;;;;;;;;;7.45;85.14;99244.09;5049510;28;19974;-85
2021/12/30 04:22:46;;;;;;;;;;;;;;;7.48;85.10;99243.22;5048380;28;20156;-84
2021/12/30 04:25:12;;;;;;;;;;;;;;;7.48;85.19;99251.94;5051084;28;19920;-85
2021/12/30 04:27:38;;;;;;;;;;;;;;;7.35;85.82;99250.31;5037521;28;20804;-86
2021/12/30 04:30:04;;;;;;;;;;;;;;;7.42;85.80;99264.25;5029350;28;19921;-86
2021/12/30 04:32:30;;;;;;;;;;;;;;;7.31;85.97;99261.72;5036707;28;19924;-87
2021/12/30 04:34:55;;;;;;;;;;;;;;;7.29;86.01;99261.75;5028964;28;20328;-85
2021/12/30 04:37:20;;;;;;;;;;;;;;;7.44;84.86;99265.09;5033261;28;19921;-87
2021/12/30 04:39:46;;;;;;;;;;;;;;;7.41;85.37;99275.63;5035678;28;19983;-86
2021/12/30 04:42:11;;;;;;;;;;;;;;;7.30;85.20;99273.09;5048551;28;19925;-87
2021/12/30 04:44:36;;;;;;;;;;;;;;;7.32;85.27;99276.56;5048273;28;20012;-88
2021/12/30 04:47:02;;;;;;;;;;;;;;;7.40;85.77;99287.88;5076017;28;19928;-86
2021/12/30 04:49:28;;;;;;;;;;;;;;;7.43;85.50;99294.84;5053205;28;20012;-86
2021/12/30 04:51:53;;;;;;;;;;;;;;;7.47;84.79;99294.81;5045872;28;20948;-86
2021/12/30 04:54:19;;;;;;;;;;;;;;;7.31;85.07;99294.06;5039976;28;20605;-86
2021/12/30 04:56:44;;;;;;;;;;;;;;;7.19;86.01;99302.03;5054934;28;19924;-86
2021/12/30 04:59:10;;;;;;;;;;;;;;;7.23;86.02;99298.53;5061957;28;20390;-85
2021/12/30 05:01:35;;;;;;;;;;;;;;;7.22;86.72;99322.16;5047010;28;19921;-85
2021/12/30 05:04:01;;;;;;;;;;;;;;;7.22;86.34;99317.75;5046565;28;19921;-88
2021/12/30 05:06:26;;;;;;;;;;;;;;;7.27;85.58;99325.59;5050693;28;19925;-86
2021/12/30 05:08:52;;;;;;;;;;;;;;;7.16;86.55;99328.28;5046529;28;19931;-85
2021/12/30 05:11:17;;;;;;;;;;;;;;;7.08;85.83;99332.72;5053131;28;20061;-86
2021/12/30 05:13:43;;;;;;;;;;;;;;;7.11;86.08;99330.09;5065089;28;19924;-85
2021/12/30 05:16:08;;;;;;;;;;;;;;;7.07;86.29;99347.56;5059121;28;19925;-85
2021/12/30 05:18:34;;;;;;;;;;;;;;;6.98;85.85;99339.75;5048176;28;19920;-86
2021/12/30 05:21:00;;;;;;;;;;;;;;;7.11;85.47;99351.94;5055656;28;20457;-86
2021/12/30 05:23:26;;;;;;;;;;;;;;;7.08;86.02;99357.19;5051917;28;19924;-87
2021/12/30 05:25:51;;;;;;;;;;;;;;;7.11;85.00;99359.81;5065208;28;19920;-85
2021/12/30 05:28:16;;;;;;;;;;;;;;;7.11;84.40;99364.19;5055132;28;19929;-86
2021/12/30 05:30:42;;;;;;;;;;;;;;;7.14;84.46;99367.66;5055109;28;19967;-86
2021/12/30 05:33:07;;;;;;;;;;;;;;;7.22;84.12;99367.59;5063816;28;20325;-85
2021/12/30 05:35:33;;;;;;;;;;;;;;;7.01;84.91;99372.97;5047562;28;19928;-84
2021/12/30 05:38:00;;;;;;;;;;;;;;;6.99;84.89;99371.22;5066805;28;19923;-85
2021/12/30 05:40:25;;;;;;;;;;;;;;;7.04;85.29;99367.72;5048472;28;19929;-86
2021/12/30 05:42:51;;;;;;;;;;;;;;;7.10;84.48;99384.28;5055437;28;19924;-87
2021/12/30 05:45:16;;;;;;;;;;;;;;;7.23;84.01;99382.47;5066511;28;19981;-87
2021/12/30 05:47:46;;;;;;;;;;;;;;;7.07;84.54;99383.44;5062586;28;19936;-85
2021/12/30 05:50:12;;;;;;;;;;;;;;;7.07;84.45;99389.53;5054799;28;19921;-86
2021/12/30 05:52:37;;;;;;;;;;;;;;;7.04;84.81;99393.94;5044393;28;20369;-85
2021/12/30 05:55:04;;;;;;;;;;;;;;;7.03;85.29;99406.19;5047166;28;19921;-86
2021/12/30 05:57:29;;;;;;;;;;;;;;;7.09;84.30;99405.28;5046976;28;19927;-85
2021/12/30 05:59:55;;;;;;;;;;;;;;;7.22;82.78;99414.84;5047678;28;20380;-86
2021/12/30 06:02:20;;;;;;;;;;;;;;;7.05;84.01;99429.81;5052690;28;19925;-86
2021/12/30 06:04:45;;;;;;;;;;;;;;;7.19;83.63;99427.97;5070769;28;19925;-85
2021/12/30 06:07:11;;;;;;;;;;;;;;;7.34;83.04;99430.50;5051959;28;19916;-86
2021/12/30 06:09:36;;;;;;;;;;;;;;;7.29;83.50;99434.91;5064794;28;19920;-87
2021/12/30 06:12:02;;;;;;;;;;;;;;;7.10;83.58;99441.13;5065378;28;20392;-87
2021/12/30 06:14:27;;;;;;;;;;;;;;;6.98;84.15;99450.81;5060829;28;20429;-85
2021/12/30 06:16:53;;;;;;;;;;;;;;;7.02;84.22;99456.03;5066327;28;19927;-86
2021/12/30 06:19:18;;;;;;;;;;;;;;;7.01;83.56;99467.41;5066492;28;19974;-85
2021/12/30 06:21:44;;;;;;;;;;;;;;;7.28;82.88;99472.53;5051899;28;19924;-85
2021/12/30 06:24:09;;;;;;;;;;;;;;;7.27;82.48;99478.63;5045940;28;19924;-86
2021/12/30 06:26:34;;;;;;;;;;;;;;;7.16;82.85;99489.19;5046582;28;20012;-85
2021/12/30 06:29:00;;;;;;;;;;;;;;;7.21;81.32;99489.16;5046586;28;19920;-87
2021/12/30 06:31:25;;;;;;;;;;;;;;;7.24;82.18;99493.53;5049212;28;19924;-86
2021/12/30 06:33:50;;;;;;;;;;;;;;;7.21;81.71;99496.16;5046240;28;19964;-86
2021/12/30 06:36:17;;;;;;;;;;;;;;;7.11;82.47;99511.09;5059552;28;20015;-86
2021/12/30 06:38:43;;;;;;;;;;;;;;;7.06;83.04;99508.47;5049911;28;19921;-85
2021/12/30 06:41:08;;;;;;;;;;;;;;;7.10;82.57;99520.69;5060836;28;19932;-86
2021/12/30 06:43:34;;;;;;;;;;;;;;;6.97;82.65;99517.25;5066761;28;20019;-87
2021/12/30 06:46:03;;;;;;;;;;;;;;;6.93;82.30;99525.97;5067176;28;20452;-85
2021/12/30 06:48:29;;;;;;;;;;;;;;;7.02;82.48;99530.34;5060424;28;20383;-86
2021/12/30 06:50:56;;;;;;;;;;;;;;;7.15;82.02;99536.41;5046909;28;19971;-86
2021/12/30 06:53:22;;;;;;;;;;;;;;;7.10;81.34;99543.44;5045743;28;19925;-86
2021/12/30 06:55:48;;;;;;;;;;;;;;;6.86;82.23;99540.00;5078955;28;19956;-84
2021/12/30 06:58:13;;;;;;;;;;;;;;;6.97;82.34;99546.09;5048026;28;19964;-86
2021/12/30 07:00:39;;;;;;;;;;;;;;;6.90;82.00;99549.59;5050817;28;19925;-86
2021/12/30 07:03:05;;;;;;;;;;;;;;;6.93;82.11;99554.84;5049783;28;19972;-86
2021/12/30 07:05:30;;;;;;;;;;;;;;;7.03;81.67;99560.94;5050610;28;19923;-86
2021/12/30 07:07:56;;;;;;;;;;;;;;;7.02;82.53;99566.19;5050323;28;19925;-86
2021/12/30 07:10:21;;;;;;;;;;;;;;;7.04;82.25;99572.31;5048907;28;19936;-85
2021/12/30 07:12:47;;;;;;;;;;;;;;;6.86;81.80;99581.97;5050090;28;19921;-85
2021/12/30 07:15:12;;;;;;;;;;;;;;;7.10;81.35;99583.63;5050313;28;19979;-89
2021/12/30 07:17:37;;;;;;;;;;;;;;;6.91;80.85;99588.06;5049588;28;19917;-85
2021/12/30 07:20:03;;;;;;;;;;;;;;;6.88;81.85;99602.94;5041494;28;20602;-86
2021/12/30 07:22:29;;;;;;;;;;;;;;;7.19;81.52;99600.25;5042322;28;19936;-85
2021/12/30 07:24:56;;;;;;;;;;;;;;;7.23;81.45;99607.22;5049506;28;20006;-86
2021/12/30 07:27:21;;;;;;;;;;;;;;;7.19;80.70;99611.59;5048144;28;20645;-86
2021/12/30 07:29:47;;;;;;;;;;;;;;;7.21;80.10;99607.22;5055996;28;19929;-85
2021/12/30 07:32:12;;;;;;;;;;;;;;;7.06;81.16;99613.41;5049613;28;19924;-86
2021/12/30 07:34:37;;;;;;;;;;;;;;;6.93;80.13;99623.00;5052713;28;19924;-86
2021/12/30 07:37:03;;;;;;;;;;;;;;;7.15;81.40;99623.88;5056725;28;19925;-85
2021/12/30 07:39:28;;;;;;;;;;;;;;;7.10;79.85;99628.22;5035293;28;19921;-86
2021/12/30 07:41:53;;;;;;;;;;;;;;;7.15;81.25;99630.84;5054618;28;19999;-84
2021/12/30 07:44:19;;;;;;;;;;;;;;;7.05;80.44;99637.00;5048720;28;19960;-85
2021/12/30 07:46:44;;;;;;;;;;;;;;;7.17;80.85;99639.59;5062609;28;20015;-85
2021/12/30 07:49:09;;;;;;;;;;;;;;;7.11;79.90;99644.88;5030907;28;19978;-85
2021/12/30 07:51:35;;;;;;;;;;;;;;;7.19;79.09;99650.09;5056836;28;19975;-85
2021/12/30 07:54:00;;;;;;;;;;;;;;;6.99;77.80;99651.00;5068349;28;19924;-85
2021/12/30 07:56:25;;;;;;;;;;;;;;;7.20;78.59;99652.72;5050589;28;19925;-85
2021/12/30 07:58:51;;;;;;;;;;;;;;;7.33;78.43;99664.91;5050185;28;19986;-85
2021/12/30 08:01:16;;;;;;;;;;;;;;;7.25;78.47;99661.44;5067531;28;20002;-85
2021/12/30 08:03:42;;;;;;;;;;;;;;;7.13;78.05;99664.94;5062607;28;19927;-85
2021/12/30 08:06:08;;;;;;;;;;;;;;;7.11;78.27;99669.34;5039472;28;19963;-86
2021/12/30 08:08:33;;;;;;;;;;;;;;;7.45;78.36;99668.41;5028413;28;19932;-84
2021/12/30 08:10:58;;;;;;;;;;;;;;;7.52;77.49;99671.00;5040768;28;20330;-84
2021/12/30 08:13:24;;;;;;;;;;;;;;;7.63;76.36;99677.97;5048922;28;19966;-85
2021/12/30 08:15:50;;;;;;;;;;;;;;;7.65;76.90;99679.72;5044708;28;19925;-85
2021/12/30 08:18:16;;;;;;;;;;;;;;;7.67;76.36;99682.34;5045908;28;19932;-85
2021/12/30 08:20:41;;;;;;;;;;;;;;;7.77;78.11;99678.81;5039169;28;19925;-86
2021/12/30 08:23:06;;;;;;;;;;;;;;;8.00;77.40;99678.72;5051830;28;19924;-87
2021/12/30 08:25:32;;;;;;;;;;;;;;;7.89;78.15;99677.88;5067308;28;19921;-85
2021/12/30 08:27:57;;;;;;;;;;;;;;;7.89;79.33;99681.38;5067834;28;19974;-86
2021/12/30 08:30:23;;;;;;;;;;;;;;;8.11;77.91;99681.28;5054213;28;19974;-85
2021/12/30 08:32:49;;;;;;;;;;;;;;;8.05;78.01;99686.56;5027750;28;19921;-86
2021/12/30 08:35:15;;;;;;;;;;;;;;;7.94;78.79;99677.84;5046923;28;19974;-87
2021/12/30 08:37:41;;;;;;;;;;;;;;;7.98;75.71;99692.72;5048429;28;19932;-84
2021/12/30 08:40:08;;;;;;;;;;;;;;;7.88;76.95;99687.50;5058976;28;20345;-84
2021/12/30 08:42:33;;;;;;;;;;;;;;;7.98;76.37;99692.72;5046737;28;19924;-83
2021/12/30 08:44:59;;;;;;;;;;;;;;;7.87;75.57;99692.75;5047801;28;19916;-84
2021/12/30 08:47:25;;;;;;;;;;;;;;;8.03;75.68;99697.09;5048577;28;19920;-85
2021/12/30 08:49:51;;;;;;;;;;;;;;;8.10;75.37;99695.28;5037976;28;19964;-84
2021/12/30 08:52:18;;;;;;;;;;;;;;;8.16;75.17;99689.13;5040546;28;20454;-85
2021/12/30 08:54:44;;;;;;;;;;;;;;;8.09;75.99;99698.78;5045232;28;19921;-85
2021/12/30 08:57:10;;;;;;;;;;;;;;;8.00;74.30;99698.81;5047035;28;19921;-86
2021/12/30 08:59:36;;;;;;;;;;;;;;;8.15;76.04;99698.75;5047543;28;20460;-85
2021/12/30 09:02:02;;;;;;;;;;;;;;;8.03;75.40;99699.72;5047227;28;19921;-85
2021/12/30 09:04:27;;;;;;;;;;;;;;;7.86;75.24;99701.50;5046951;28;19934;-85
2021/12/30 09:06:53;;;;;;;;;;;;;;;7.92;74.33;99704.13;5046400;28;19971;-85
2021/12/30 09:09:18;;;;;;;;;;;;;;;8.03;75.14;99709.31;5046950;28;19936;-86
2021/12/30 09:11:44;;;;;;;;;;;;;;;8.33;75.86;99707.44;5047073;28;19920;-85
2021/12/30 09:14:09;;;;;;;;;;;;;;;8.36;74.83;99712.69;5046660;28;20375;-85
2021/12/30 09:16:36;;;;;;;;;;;;;;;8.31;74.02;99698.66;5046046;28;20320;-85
2021/12/30 09:19:02;;;;;;;;;;;;;;;8.22;73.67;99720.63;5047713;28;19920;-86
2021/12/30 09:21:27;;;;;;;;;;;;;;;8.20;72.97;99718.03;5046175;28;19916;-86
2021/12/30 09:23:52;;;;;;;;;;;;;;;8.38;73.19;99713.53;5047753;28;19921;-85
2021/12/30 09:26:18;;;;;;;;;;;;;;;8.49;72.71;99718.75;5048229;28;19936;-85
2021/12/30 09:28:43;;;;;;;;;;;;;;;8.63;74.19;99714.28;5047715;28;19920;-85
2021/12/30 09:31:08;;;;;;;;;;;;;;;8.41;71.97;99717.00;5048081;28;20307;-85
2021/12/30 09:33:34;;;;;;;;;;;;;;;8.25;73.12;99715.38;5046939;28;20067;-86
2021/12/30 09:36:02;;;;;;;;;;;;;;;8.42;73.78;99717.91;5046766;28;20380;-86
2021/12/30 09:38:27;;;;;;;;;;;;;;;8.36;73.62;99721.44;5047187;28;19931;-86
2021/12/30 09:40:53;;;;;;;;;;;;;;;8.46;72.34;99722.28;5047019;28;20382;-86
2021/12/30 09:43:18;;;;;;;;;;;;;;;8.41;72.61;99724.03;5047434;28;19943;-86
2021/12/30 09:45:44;;;;;;;;;;;;;;;8.25;72.62;99731.13;5047478;28;20016;-86
2021/12/30 09:48:11;;;;;;;;;;;;;;;8.22;73.79;99732.00;5047209;28;20386;-84
2021/12/30 09:50:38;;;;;;;;;;;;;;;8.35;72.87;99727.56;5046274;28;19942;-83
2021/12/30 09:53:04;;;;;;;;;;;;;;;8.38;71.79;99726.69;5047354;28;19917;-84
2021/12/30 09:55:30;;;;;;;;;;;;;;;8.40;71.06;99723.16;5045911;28;20509;-85
2021/12/30 09:57:55;;;;;;;;;;;;;;;8.24;70.41;99724.13;5046369;28;19916;-85
2021/12/30 10:00:21;;;;;;;;;;;;;;;8.18;70.66;99737.28;5047129;28;19921;-86
2021/12/30 10:02:47;;;;;;;;;;;;;;;8.27;71.90;99739.88;5046363;28;19935;-87
2021/12/30 10:05:16;;;;;;;;;;;;;;;8.24;72.27;99732.88;5046881;28;20038;-87
2021/12/30 10:07:42;;;;;;;;;;;;;;;8.42;70.89;99734.53;5046704;28;20019;-88
2021/12/30 10:10:28;;;;;;;;;;;;;;;8.64;72.57;99731.81;5046877;28;19936;-85
2021/12/30 10:12:53;;;;;;;;;;;;;;;8.49;70.07;99734.53;5045673;28;19917;-86
2021/12/30 10:15:24;;;;;;;;;;;;;;;8.37;69.75;99745.94;5046778;28;19925;-85
2021/12/30 10:17:59;;;;;;;;;;;;;;;8.41;69.89;99745.94;5046327;28;19921;-85
2021/12/30 10:20:27;;;;;;;;;;;;;;;8.36;71.10;99749.47;5044493;28;19940;-85
2021/12/30 10:22:54;;;;;;;;;;;;;;;8.54;70.51;99751.16;5046270;28;20382;-84
2021/12/30 10:25:26;;;;;;;;;;;;;;;8.78;70.39;99756.25;5046111;28;19921;-86
2021/12/30 10:27:52;;;;;;;;;;;;;;;8.69;68.27;99758.09;5046723;28;19925;-86
2021/12/30 10:30:31;;;;;;;;;;;;;;;8.49;67.78;99752.94;5033976;28;19979;-86
2021/12/30 10:33:12;;;;;;;;;;;;;;;8.41;69.78;99761.69;5029365;28;19924;-87
2021/12/30 10:35:37;;;;;;;;;;;;;;;8.27;69.94;99758.28;5030161;28;19943;-86
2021/12/30 10:38:08;;;;;;;;;;;;;;;8.63;69.23;99769.50;5030825;28;20391;-84
2021/12/30 10:40:33;;;;;;;;;;;;;;;8.55;69.04;99768.69;5030066;28;20472;-86
2021/12/30 10:43:20;;;;;;;;;;;;;;;8.68;68.67;99770.38;5030427;28;19921;-85
2021/12/30 10:46:15;;;;;;;;;;;;;;;8.65;69.42;99762.50;5041357;28;19963;-85
2021/12/30 10:48:51;;;;;;;;;;;;;;;8.57;69.78;99773.06;5029697;28;20382;-86
2021/12/30 10:51:21;;;;;;;;;;;;;;;8.56;70.15;99781.81;5043751;28;19917;-85
2021/12/30 10:53:46;;;;;;;;;;;;;;;8.53;69.12;99770.47;5050453;28;20045;-85
2021/12/30 10:56:18;;;;;;;;;;;;;;;8.71;69.33;99778.25;5050489;28;20694;-85
2021/12/30 10:58:43;;;;;;;;;;;;;;;8.42;69.69;99784.50;5050052;28;19952;-85
2021/12/30 11:01:19;;;;;;;;;;;;;;;8.34;69.25;99785.38;5050118;28;19967;-85
2021/12/30 11:03:54;;;;;;;;;;;;;;;8.31;71.10;99788.03;5047191;28;19955;-85
2021/12/30 11:06:19;;;;;;;;;;;;;;;8.39;70.15;99788.91;5040427;28;20597;-87
2021/12/30 11:08:49;;;;;;;;;;;;;;;8.36;68.19;99797.66;5040218;28;19967;-86
2021/12/30 11:11:28;;;;;;;;;;;;;;;8.27;69.47;99795.06;5045596;28;19921;-86
2021/12/30 11:13:57;;;;;;;;;;;;;;;8.39;69.36;99802.91;5040067;28;20374;-86
2021/12/30 11:16:23;;;;;;;;;;;;;;;8.24;68.74;99795.94;5070196;28;19918;-87
2021/12/30 11:18:48;;;;;;;;;;;;;;;8.19;69.15;99792.47;5067990;28;19928;-86
2021/12/30 11:21:33;;;;;;;;;;;;;;;8.27;68.32;99799.47;5069285;28;19920;-86
2021/12/30 11:23:59;;;;;;;;;;;;;;;8.21;68.54;99792.47;5063064;28;19920;-86
2021/12/30 11:26:24;;;;;;;;;;;;;;;8.22;69.82;99789.84;5049814;28;19938;-85
2021/12/30 11:28:50;;;;;;;;;;;;;;;8.38;69.85;99790.63;5061851;28;19991;-86
2021/12/30 11:31:15;;;;;;;;;;;;;;;8.31;69.54;99788.94;5061870;28;19924;-87
2021/12/30 11:33:41;;;;;;;;;;;;;;;8.33;69.37;99788.91;5051136;28;19921;-85
2021/12/30 11:36:06;;;;;;;;;;;;;;;8.45;69.84;99796.78;5050267;28;19936;-86
2021/12/30 11:38:31;;;;;;;;;;;;;;;8.19;69.50;99789.84;5062404;28;19920;-85
2021/12/30 11:40:57;;;;;;;;;;;;;;;8.07;69.56;99798.63;5053672;28;20015;-87
2021/12/30 11:43:22;;;;;;;;;;;;;;;8.21;68.54;99795.09;5048699;28;19968;-86
2021/12/30 11:45:47;;;;;;;;;;;;;;;8.17;69.07;99795.97;5081569;28;20613;-87
2021/12/30 11:48:30;;;;;;;;;;;;;;;8.21;68.56;99808.22;5051943;28;19924;-86
2021/12/30 11:51:05;;;;;;;;;;;;;;;8.21;68.66;99810.84;5048147;28;19921;-87
2021/12/30 11:53:31;;;;;;;;;;;;;;;8.14;68.40;99812.66;5046241;28;19929;-86
2021/12/30 11:56:03;;;;;;;;;;;;;;;8.16;68.80;99825.78;5046766;28;19925;-86
2021/12/30 11:58:36;;;;;;;;;;;;;;;8.12;67.59;99822.25;5045735;28;19978;-87
2021/12/30 12:01:11;;;;;;;;;;;;;;;8.10;67.26;99837.16;5057087;28;20436;-86
2021/12/30 12:03:38;;;;;;;;;;;;;;;8.20;68.03;99840.63;5064195;28;19925;-87
2021/12/30 12:06:05;;;;;;;;;;;;;;;8.21;67.57;99843.25;5048646;28;19960;-87
2021/12/30 12:08:41;;;;;;;;;;;;;;;8.25;67.50;99844.16;5048019;28;20387;-87
2021/12/30 12:11:20;;;;;;;;;;;;;;;8.19;68.10;99844.16;5063559;28;19933;-87
2021/12/30 12:13:47;;;;;;;;;;;;;;;8.05;67.27;99836.31;5047529;28;19931;-86
2021/12/30 12:16:16;;;;;;;;;;;;;;;7.97;68.23;99843.31;5049762;28;19921;-87
2021/12/30 12:19:00;;;;;;;;;;;;;;;7.85;68.71;99838.97;5061456;28;19920;-84
2021/12/30 12:21:39;;;;;;;;;;;;;;;7.89;67.96;99853.84;5068462;28;19921;-88
2021/12/30 12:24:27;;;;;;;;;;;;;;;8.07;69.03;99859.06;5056505;28;20003;-85
2021/12/30 12:26:54;;;;;;;;;;;;;;;8.10;67.75;99855.56;5051115;28;19951;-83
2021/12/30 12:29:32;;;;;;;;;;;;;;;8.03;68.26;99852.09;5028425;28;20007;-85
2021/12/30 12:32:11;;;;;;;;;;;;;;;8.14;68.95;99856.41;5028221;28;19932;-84
2021/12/30 12:34:38;;;;;;;;;;;;;;;8.09;68.82;99856.44;5028731;28;19921;-85
2021/12/30 12:37:04;;;;;;;;;;;;;;;8.15;69.90;99866.06;5062203;28;19924;-85
2021/12/30 12:39:34;;;;;;;;;;;;;;;8.19;69.38;99866.06;5057870;28;19963;-83
2021/12/30 12:41:59;;;;;;;;;;;;;;;8.17;68.22;99877.44;5055283;28;19925;-84
2021/12/30 12:44:24;;;;;;;;;;;;;;;8.18;68.94;99880.06;5048175;28;19921;-83
2021/12/30 12:46:51;;;;;;;;;;;;;;;8.19;69.25;99883.59;5033596;28;19921;-84
2021/12/30 12:49:32;;;;;;;;;;;;;;;8.18;69.37;99880.06;5047723;28;20120;-83
2021/12/30 12:51:57;;;;;;;;;;;;;;;7.95;70.04;99887.13;5027862;28;20020;-84
2021/12/30 12:54:36;;;;;;;;;;;;;;;7.96;70.20;99891.50;5026864;28;20004;-83
2021/12/30 12:57:06;;;;;;;;;;;;;;;7.89;69.71;99898.50;5045770;28;19947;-85